Time;durP1;ratioP1;P1;durP2;ratioP2;P2;SDS_P1;SDS_P2;PMS_P1;PMS_P2;Temp;Humidity;BMP_temperature;BMP_pressure;BME280_temperature;BME280_humidity;BME280_pressure;Samples;Min_cycle;Max_cycle;Signal;HPM_P1;HPM_P2
2021/12/06 00:00:42;;;;;;;;;8.50;8.50;;;;;;;;5040840;28;11346;-82
2021/12/06 00:03:13;;;;;;;;;10.00;10.00;;;;;;;;5049461;28;11503;-76
2021/12/06 00:05:42;;;;;;;;;8.75;6.00;;;;;;;;5024941;28;11497;-79
2021/12/06 00:08:10;;;;;;;;;10.75;7.25;;;;;;;;5040889;28;11521;-75
2021/12/06 00:10:37;;;;;;;;;8.00;8.00;;;;;;;;5014912;28;11440;-77
2021/12/06 00:13:04;;;;;;;;;6.75;6.75;;;;;;;;5048368;28;11982;-76
2021/12/06 00:15:33;;;;;;;;;5.50;5.50;;;;;;;;5043414;28;11497;-80
2021/12/06 00:18:00;;;;;;;;;8.75;8.75;;;;;;;;5036787;28;11451;-76
2021/12/06 00:20:28;;;;;;;;;10.00;10.00;;;;;;;;5014245;28;11522;-79
2021/12/06 00:22:57;;;;;;;;;13.75;13.75;;;;;;;;5044803;28;11443;-83
2021/12/06 00:25:24;;;;;;;;;14.25;10.75;;;;;;;;5035365;28;11431;-82
2021/12/06 00:27:51;;;;;;;;;5.50;5.50;;;;;;;;5040909;28;11447;-80
2021/12/06 00:30:19;;;;;;;;;12.00;10.25;;;;;;;;5034869;28;11521;-78
2021/12/06 00:32:50;;;;;;;;;5.00;5.00;;;;;;;;5043275;28;11431;-76
2021/12/06 00:35:29;;;;;;;;;10.00;5.00;;;;;;;;5026946;28;11523;-80
2021/12/06 00:38:00;;;;;;;;;4.00;4.00;;;;;;;;5044141;28;11410;-76
2021/12/06 00:40:32;;;;;;;;;5.00;5.00;;;;;;;;5042894;28;11418;-80
2021/12/06 00:43:00;;;;;;;;;8.50;8.50;;;;;;;;5044430;28;11430;-80
2021/12/06 00:45:27;;;;;;;;;7.25;7.25;;;;;;;;5043124;28;11426;-80
2021/12/06 00:47:55;;;;;;;;;7.25;7.25;;;;;;;;5026763;28;11501;-80
2021/12/06 00:50:24;;;;;;;;;6.00;6.00;;;;;;;;5025745;28;11449;-76
2021/12/06 00:52:52;;;;;;;;;8.00;8.00;;;;;;;;5042350;28;11550;-80
2021/12/06 00:55:22;;;;;;;;;11.25;11.00;;;;;;;;5055933;28;11418;-81
2021/12/06 00:57:53;;;;;;;;;9.00;7.25;;;;;;;;5046090;28;11424;-80
2021/12/06 01:00:25;;;;;;;;;1.00;1.00;;;;;;;;5056738;28;11472;-81
2021/12/06 01:02:52;;;;;;;;;8.50;7.75;;;;;;;;5044290;28;11531;-78
2021/12/06 01:05:22;;;;;;;;;7.00;7.00;;;;;;;;5044033;28;11428;-80
2021/12/06 01:07:50;;;;;;;;;6.75;5.00;;;;;;;;5043296;28;11424;-81
2021/12/06 01:10:18;;;;;;;;;5.00;5.00;;;;;;;;5040886;28;11434;-80
2021/12/06 01:12:46;;;;;;;;;5.25;5.25;;;;;;;;5046527;28;11490;-82
2021/12/06 01:15:14;;;;;;;;;8.00;5.00;;;;;;;;5043295;28;11392;-80
2021/12/06 01:17:41;;;;;;;;;5.00;3.50;;;;;;;;5029286;28;11392;-79
2021/12/06 01:20:12;;;;;;;;;6.00;5.00;;;;;;;;5044492;28;11487;-78
2021/12/06 01:22:44;;;;;;;;;6.00;5.50;;;;;;;;5059500;28;11382;-81
2021/12/06 01:25:24;;;;;;;;;8.50;6.00;;;;;;;;5044173;28;11415;-80
2021/12/06 01:28:20;;;;;;;;;15.25;12.50;;;;;;;;5034643;28;11426;-79
2021/12/06 01:30:59;;;;;;;;;6.00;6.00;;;;;;;;5045952;28;11322;-81
2021/12/06 01:33:42;;;;;;;;;8.00;7.00;;;;;;;;5049013;28;11406;-81
2021/12/06 01:39:16;;;;;;;;;6.75;5.00;;;;;;;;5037830;28;11520;-77
2021/12/06 01:41:48;;;;;;;;;7.00;7.00;;;;;;;;5059652;28;11400;-82
2021/12/06 01:44:20;;;;;;;;;14.00;13.00;;;;;;;;5033720;28;11418;-79
2021/12/06 01:46:49;;;;;;;;;14.75;10.00;;;;;;;;5055127;28;12276;-78
2021/12/06 01:49:18;;;;;;;;;12.50;7.25;;;;;;;;5055632;28;11399;-81
2021/12/06 01:51:47;;;;;;;;;10.25;8.50;;;;;;;;5050185;28;11402;-82
2021/12/06 01:54:18;;;;;;;;;9.25;7.25;;;;;;;;5045969;28;12175;-81
2021/12/06 01:56:47;;;;;;;;;6.50;6.50;;;;;;;;5054638;28;11405;-81
2021/12/06 01:59:16;;;;;;;;;4.50;4.50;;;;;;;;5050651;28;11430;-81
2021/12/06 02:01:43;;;;;;;;;11.00;7.25;;;;;;;;5057657;28;11340;-81
2021/12/06 02:04:11;;;;;;;;;5.25;3.75;;;;;;;;5039148;28;11394;-80
2021/12/06 02:06:43;;;;;;;;;5.50;5.50;;;;;;;;5041923;28;12159;-82
2021/12/06 02:09:14;;;;;;;;;8.00;5.50;;;;;;;;5051867;28;12206;-82
2021/12/06 02:11:42;;;;;;;;;7.25;6.50;;;;;;;;5031471;28;11415;-79
2021/12/06 02:14:24;;;;;;;;;7.50;5.00;;;;;;;;5050074;28;11447;-76
2021/12/06 02:17:03;;;;;;;;;10.75;7.25;;;;;;;;5043572;28;11446;-78
2021/12/06 02:19:34;;;;;;;;;6.75;6.00;;;;;;;;5046952;28;12270;-82
2021/12/06 02:22:04;;;;;;;;;7.25;5.00;;;;;;;;5044547;28;11557;-76
2021/12/06 02:24:33;;;;;;;;;5.00;5.00;;;;;;;;5055291;28;11411;-80
2021/12/06 02:27:01;;;;;;;;;5.25;5.25;;;;;;;;5065427;28;11419;-83
2021/12/06 02:29:28;;;;;;;;;4.00;3.50;;;;;;;;5039598;28;11499;-81
2021/12/06 02:31:56;;;;;;;;;6.00;6.00;;;;;;;;5044968;28;11385;-79
2021/12/06 02:34:24;;;;;;;;;11.25;9.50;;;;;;;;5044452;28;11436;-81
2021/12/06 02:36:51;;;;;;;;;10.75;10.50;;;;;;;;5028560;28;11403;-79
2021/12/06 02:39:23;;;;;;;;;6.00;6.00;;;;;;;;5045587;28;11435;-82
2021/12/06 02:41:53;;;;;;;;;3.25;1.75;;;;;;;;5038172;28;11403;-78
2021/12/06 02:44:22;;;;;;;;;6.25;6.25;;;;;;;;5044823;28;11106;-81
2021/12/06 02:46:49;;;;;;;;;13.50;7.00;;;;;;;;5044311;28;11423;-80
2021/12/06 02:49:17;;;;;;;;;5.00;5.00;;;;;;;;5048083;28;11425;-80
2021/12/06 02:51:45;;;;;;;;;7.25;7.25;;;;;;;;5052644;28;11411;-78
2021/12/06 02:54:13;;;;;;;;;5.00;5.00;;;;;;;;5046318;28;11407;-78
2021/12/06 02:56:53;;;;;;;;;6.25;5.25;;;;;;;;5054352;28;12153;-79
2021/12/06 02:59:22;;;;;;;;;7.75;5.75;;;;;;;;5043828;28;11425;-78
2021/12/06 03:01:54;;;;;;;;;7.50;6.00;;;;;;;;5043166;28;11425;-79
2021/12/06 03:04:22;;;;;;;;;5.00;5.00;;;;;;;;5051813;28;11439;-78
2021/12/06 03:06:53;;;;;;;;;3.75;1.50;;;;;;;;5032579;28;11379;-80
2021/12/06 03:09:22;;;;;;;;;6.50;6.50;;;;;;;;5044497;28;11407;-81
2021/12/06 03:11:54;;;;;;;;;5.00;5.00;;;;;;;;5046685;28;11507;-79
2021/12/06 03:14:23;;;;;;;;;7.50;6.50;;;;;;;;5054208;28;11391;-81
2021/12/06 03:16:51;;;;;;;;;8.25;8.25;;;;;;;;5027167;28;11426;-79
2021/12/06 03:19:19;;;;;;;;;6.25;5.00;;;;;;;;5036547;28;11395;-78
2021/12/06 03:21:46;;;;;;;;;5.50;5.50;;;;;;;;5057745;28;11444;-80
2021/12/06 03:24:13;;;;;;;;;8.75;7.50;;;;;;;;5044382;28;11412;-81
2021/12/06 03:26:41;;;;;;;;;5.75;5.75;;;;;;;;5061173;28;11411;-79
2021/12/06 03:29:10;;;;;;;;;5.00;5.00;;;;;;;;5057274;28;12429;-79
2021/12/06 03:31:38;;;;;;;;;9.25;9.25;;;;;;;;5043800;28;11347;-78
2021/12/06 03:34:08;;;;;;;;;8.00;5.75;;;;;;;;5044988;28;11425;-78
2021/12/06 03:36:38;;;;;;;;;13.75;8.25;;;;;;;;5038837;28;11421;-78
2021/12/06 03:39:08;;;;;;;;;8.00;8.00;;;;;;;;5045768;28;11416;-78
2021/12/06 03:41:35;;;;;;;;;7.00;7.00;;;;;;;;5059235;28;11452;-80
2021/12/06 03:44:06;;;;;;;;;5.75;5.75;;;;;;;;5043494;28;11403;-79
2021/12/06 03:46:35;;;;;;;;;4.50;4.00;;;;;;;;5045285;28;11404;-80
2021/12/06 03:49:08;;;;;;;;;3.25;2.00;;;;;;;;5044677;28;11405;-77
2021/12/06 03:51:36;;;;;;;;;4.00;4.00;;;;;;;;5041199;28;11444;-78
2021/12/06 03:54:03;;;;;;;;;4.00;4.00;;;;;;;;5044888;28;11371;-78
2021/12/06 03:56:31;;;;;;;;;6.75;5.00;;;;;;;;5055520;28;11391;-79
2021/12/06 03:58:58;;;;;;;;;4.00;4.00;;;;;;;;5057981;28;11461;-78
2021/12/06 04:01:25;;;;;;;;;4.00;4.00;;;;;;;;5042908;28;11387;-81
2021/12/06 04:03:54;;;;;;;;;8.50;6.00;;;;;;;;5044175;28;11392;-79
2021/12/06 04:06:21;;;;;;;;;9.00;9.00;;;;;;;;5044072;28;11583;-80
2021/12/06 04:08:49;;;;;;;;;8.00;8.00;;;;;;;;5045046;28;11395;-78
2021/12/06 04:11:18;;;;;;;;;6.25;5.75;;;;;;;;5037346;28;11518;-79
2021/12/06 04:13:45;;;;;;;;;8.00;8.00;;;;;;;;5045363;28;12225;-79
2021/12/06 04:16:13;;;;;;;;;9.00;6.00;;;;;;;;5055430;28;11476;-78
2021/12/06 04:18:40;;;;;;;;;8.50;5.50;;;;;;;;5036987;28;11449;-79
2021/12/06 04:21:10;;;;;;;;;9.25;9.00;;;;;;;;5043995;28;11429;-79
2021/12/06 04:23:38;;;;;;;;;9.25;8.25;;;;;;;;5043667;28;11578;-78
2021/12/06 04:26:06;;;;;;;;;9.00;9.00;;;;;;;;5054943;28;12211;-80
2021/12/06 04:28:35;;;;;;;;;9.25;8.00;;;;;;;;5042986;28;11462;-79
2021/12/06 04:31:03;;;;;;;;;12.75;9.00;;;;;;;;5049863;28;11411;-79
2021/12/06 04:33:31;;;;;;;;;8.25;8.25;;;;;;;;5047549;28;11462;-79
2021/12/06 04:35:58;;;;;;;;;10.00;10.00;;;;;;;;5041937;28;11503;-79
2021/12/06 04:38:27;;;;;;;;;17.75;9.00;;;;;;;;5043801;28;11468;-79
2021/12/06 04:40:54;;;;;;;;;10.00;10.00;;;;;;;;5056489;28;12264;-78
2021/12/06 04:43:21;;;;;;;;;8.00;8.00;;;;;;;;5042484;28;11602;-79
2021/12/06 04:45:49;;;;;;;;;7.50;7.50;;;;;;;;5043903;28;11483;-79
2021/12/06 04:48:16;;;;;;;;;7.50;7.50;;;;;;;;5061117;28;11584;-79
2021/12/06 04:50:44;;;;;;;;;11.00;7.50;;;;;;;;5049616;28;11438;-79
2021/12/06 04:53:22;;;;;;;;;13.00;10.50;;;;;;;;5040604;28;11596;-78
2021/12/06 04:55:55;;;;;;;;;12.00;9.25;;;;;;;;5047738;28;11589;-79
2021/12/06 04:58:28;;;;;;;;;16.50;11.00;;;;;;;;5043218;28;11616;-79
2021/12/06 05:01:02;;;;;;;;;9.50;8.50;;;;;;;;5040193;28;11432;-82
2021/12/06 05:03:30;;;;;;;;;10.75;9.00;;;;;;;;5053891;28;11397;-79
2021/12/06 05:06:01;;;;;;;;;9.00;9.00;;;;;;;;5063158;28;11512;-79
2021/12/06 05:08:31;;;;;;;;;10.00;10.00;;;;;;;;5053200;28;11456;-83
2021/12/06 05:11:01;;;;;;;;;10.25;9.50;;;;;;;;5025021;28;11589;-79
2021/12/06 05:13:30;;;;;;;;;13.00;9.50;;;;;;;;5043601;28;11543;-79
2021/12/06 05:15:57;;;;;;;;;17.00;10.00;;;;;;;;5043199;28;11489;-80
2021/12/06 05:18:25;;;;;;;;;11.75;11.50;;;;;;;;5040733;28;11515;-79
2021/12/06 05:20:52;;;;;;;;;12.00;12.00;;;;;;;;5046139;28;11501;-79
2021/12/06 05:23:20;;;;;;;;;12.00;10.00;;;;;;;;5024204;28;11528;-79
2021/12/06 05:25:50;;;;;;;;;14.25;11.25;;;;;;;;5043597;28;11520;-79
2021/12/06 05:28:22;;;;;;;;;15.25;10.25;;;;;;;;5027393;28;11612;-77
2021/12/06 05:30:54;;;;;;;;;10.00;9.00;;;;;;;;5011517;28;11451;-78
2021/12/06 05:33:29;;;;;;;;;13.25;13.00;;;;;;;;5038150;28;12358;-78
2021/12/06 05:35:58;;;;;;;;;18.50;12.00;;;;;;;;5038395;28;11542;-80
2021/12/06 05:38:26;;;;;;;;;13.50;9.50;;;;;;;;5031895;28;11486;-81
2021/12/06 05:40:54;;;;;;;;;10.50;9.25;;;;;;;;5020751;28;11484;-81
2021/12/06 05:43:23;;;;;;;;;10.00;10.00;;;;;;;;5041167;28;12245;-82
2021/12/06 05:45:50;;;;;;;;;2.00;0.75;;;;;;;;5038550;28;11475;-82
2021/12/06 05:48:20;;;;;;;;;9.25;9.25;;;;;;;;5010470;28;11543;-81
2021/12/06 05:50:48;;;;;;;;;24.00;15.25;;;;;;;;5034960;28;11506;-81
2021/12/06 05:53:17;;;;;;;;;9.75;9.75;;;;;;;;5020460;28;11634;-83
2021/12/06 05:55:46;;;;;;;;;10.00;10.00;;;;;;;;5041798;28;11545;-81
2021/12/06 05:58:14;;;;;;;;;10.50;9.75;;;;;;;;5036734;28;12244;-80
2021/12/06 06:00:43;;;;;;;;;10.00;10.00;;;;;;;;5039542;28;12213;-80
2021/12/06 06:03:11;;;;;;;;;9.00;9.00;;;;;;;;5036220;28;11492;-81
2021/12/06 06:05:39;;;;;;;;;10.75;10.75;;;;;;;;5036446;28;11389;-84
2021/12/06 06:08:08;;;;;;;;;13.00;13.00;;;;;;;;5043878;28;11629;-75
2021/12/06 06:10:35;;;;;;;;;11.00;11.00;;;;;;;;5040336;28;11430;-84
2021/12/06 06:13:05;;;;;;;;;9.50;9.50;;;;;;;;5040299;28;11459;-82
2021/12/06 06:15:32;;;;;;;;;9.50;9.50;;;;;;;;5042476;28;11401;-77
2021/12/06 06:18:01;;;;;;;;;9.25;9.25;;;;;;;;5045115;28;11407;-79
2021/12/06 06:20:32;;;;;;;;;8.00;8.00;;;;;;;;5044709;28;11455;-83
2021/12/06 06:22:59;;;;;;;;;12.00;12.00;;;;;;;;5042825;28;11446;-79
2021/12/06 06:25:27;;;;;;;;;13.75;10.50;;;;;;;;5037653;28;12214;-80
2021/12/06 06:27:54;;;;;;;;;14.75;12.50;;;;;;;;5041336;28;11419;-79
2021/12/06 06:30:21;;;;;;;;;18.00;12.50;;;;;;;;5036765;28;11427;-77
2021/12/06 06:32:48;;;;;;;;;11.00;10.00;;;;;;;;5044384;28;11462;-80
2021/12/06 06:35:18;;;;;;;;;6.00;5.50;;;;;;;;5038981;28;11592;-77
2021/12/06 06:37:46;;;;;;;;;9.00;9.00;;;;;;;;5034242;28;11412;-77
2021/12/06 06:40:14;;;;;;;;;10.00;8.00;;;;;;;;5035773;28;11437;-77
2021/12/06 06:42:42;;;;;;;;;12.00;12.00;;;;;;;;5039640;28;12243;-77
2021/12/06 06:45:12;;;;;;;;;15.00;15.00;;;;;;;;5044404;28;11419;-77
2021/12/06 06:47:39;;;;;;;;;16.00;16.00;;;;;;;;5045911;28;11495;-76
2021/12/06 06:50:08;;;;;;;;;19.00;18.25;;;;;;;;5045376;28;11524;-76
2021/12/06 06:52:37;;;;;;;;;10.25;10.25;;;;;;;;5045407;28;11569;-77
2021/12/06 06:55:07;;;;;;;;;12.25;12.25;;;;;;;;5045010;28;11609;-78
2021/12/06 06:57:34;;;;;;;;;7.00;7.00;;;;;;;;5046251;28;12322;-77
2021/12/06 07:00:02;;;;;;;;;10.50;10.50;;;;;;;;5038221;28;11478;-77
2021/12/06 07:02:29;;;;;;;;;10.50;8.75;;;;;;;;5044591;28;11435;-77
2021/12/06 07:04:56;;;;;;;;;13.00;9.50;;;;;;;;5045784;28;11468;-77
2021/12/06 07:07:24;;;;;;;;;8.25;6.00;;;;;;;;5014870;28;11497;-77
2021/12/06 07:09:52;;;;;;;;;12.75;9.00;;;;;;;;5046002;28;12032;-77
2021/12/06 07:12:20;;;;;;;;;16.50;13.75;;;;;;;;5044551;28;12310;-75
2021/12/06 07:14:49;;;;;;;;;13.50;12.00;;;;;;;;5045503;28;11600;-75
2021/12/06 07:17:17;;;;;;;;;15.75;14.75;;;;;;;;5043692;28;11486;-76
2021/12/06 07:19:45;;;;;;;;;15.50;15.50;;;;;;;;5009080;28;11569;-77
2021/12/06 07:22:13;;;;;;;;;16.00;16.00;;;;;;;;5045130;28;11492;-77
2021/12/06 07:24:40;;;;;;;;;31.75;29.25;;;;;;;;5027470;28;11508;-77
2021/12/06 07:27:09;;;;;;;;;28.25;23.75;;;;;;;;5045606;28;11557;-77
2021/12/06 07:29:37;;;;;;;;;20.50;19.00;;;;;;;;5026597;28;11531;-77
2021/12/06 07:32:06;;;;;;;;;17.75;9.75;;;;;;;;5044937;28;11463;-77
2021/12/06 07:34:35;;;;;;;;;25.25;22.00;;;;;;;;5040067;28;11524;-79
2021/12/06 07:37:02;;;;;;;;;29.00;26.50;;;;;;;;5041687;28;11489;-77
2021/12/06 07:39:30;;;;;;;;;30.75;23.75;;;;;;;;5050897;28;11503;-77
2021/12/06 07:41:57;;;;;;;;;27.00;26.25;;;;;;;;5044890;28;11653;-77
2021/12/06 07:44:26;;;;;;;;;33.00;20.50;;;;;;;;5027459;28;11502;-77
2021/12/06 07:46:53;;;;;;;;;24.50;23.75;;;;;;;;5044156;28;11503;-77
2021/12/06 07:49:22;;;;;;;;;35.00;31.50;;;;;;;;5027546;28;11529;-77
2021/12/06 07:51:49;;;;;;;;;25.50;25.50;;;;;;;;5035811;28;11499;-77
2021/12/06 07:54:17;;;;;;;;;28.50;26.00;;;;;;;;5045219;28;11617;-77
2021/12/06 07:56:45;;;;;;;;;29.25;27.75;;;;;;;;5043747;28;11546;-77
2021/12/06 07:59:13;;;;;;;;;41.50;37.00;;;;;;;;5045051;28;11631;-77
2021/12/06 08:01:42;;;;;;;;;43.00;40.50;;;;;;;;5044133;28;11437;-76
2021/12/06 08:04:09;;;;;;;;;45.75;40.00;;;;;;;;5044278;28;11519;-77
2021/12/06 08:06:37;;;;;;;;;36.25;33.75;;;;;;;;5045079;28;11522;-76
2021/12/06 08:09:04;;;;;;;;;28.50;24.50;;;;;;;;5043244;28;11593;-77
2021/12/06 08:11:32;;;;;;;;;21.50;19.00;;;;;;;;5045296;28;11550;-76
2021/12/06 08:14:00;;;;;;;;;19.25;19.25;;;;;;;;5040987;28;11549;-76
2021/12/06 08:16:31;;;;;;;;;25.00;20.25;;;;;;;;5026701;28;11501;-77
2021/12/06 08:19:00;;;;;;;;;22.00;19.25;;;;;;;;5027067;28;11497;-77
2021/12/06 08:21:29;;;;;;;;;24.50;22.75;;;;;;;;5043500;28;12307;-77
2021/12/06 08:23:57;;;;;;;;;26.00;20.25;;;;;;;;5044871;28;12346;-77
2021/12/06 08:26:27;;;;;;;;;23.00;22.25;;;;;;;;5030244;28;11511;-77
2021/12/06 08:28:56;;;;;;;;;16.75;16.75;;;;;;;;5044556;28;11491;-77
2021/12/06 08:31:24;;;;;;;;;37.25;27.00;;;;;;;;5025026;28;11568;-76
2021/12/06 08:33:53;;;;;;;;;35.00;20.00;;;;;;;;5044457;28;11541;-79
2021/12/06 08:36:22;;;;;;;;;25.75;21.00;;;;;;;;5043628;28;11516;-77
2021/12/06 08:38:50;;;;;;;;;16.25;13.50;;;;;;;;5043208;28;11518;-77
2021/12/06 08:41:20;;;;;;;;;23.25;16.50;;;;;;;;5044692;28;11460;-77
2021/12/06 08:43:49;;;;;;;;;26.25;22.50;;;;;;;;5039412;28;11478;-77
2021/12/06 08:46:19;;;;;;;;;41.00;36.75;;;;;;;;5044474;28;12349;-77
2021/12/06 08:48:48;;;;;;;;;40.25;34.00;;;;;;;;5046542;28;11619;-77
2021/12/06 08:51:19;;;;;;;;;31.50;31.50;;;;;;;;5062954;28;11517;-77
2021/12/06 08:53:49;;;;;;;;;25.75;22.50;;;;;;;;5042029;28;11529;-76
2021/12/06 08:56:17;;;;;;;;;25.50;21.75;;;;;;;;5043247;28;11570;-77
2021/12/06 08:58:45;;;;;;;;;33.25;30.00;;;;;;;;5039949;28;11490;-77
2021/12/06 09:01:13;;;;;;;;;29.50;26.00;;;;;;;;5034546;28;11449;-77
2021/12/06 09:03:41;;;;;;;;;29.00;27.25;;;;;;;;5043955;28;11558;-77
2021/12/06 09:06:10;;;;;;;;;27.00;24.75;;;;;;;;5042640;28;11559;-76
2021/12/06 09:08:40;;;;;;;;;31.75;23.00;;;;;;;;5043974;28;11547;-77
2021/12/06 09:11:10;;;;;;;;;28.75;24.50;;;;;;;;5044189;28;11693;-77
2021/12/06 09:13:39;;;;;;;;;29.50;26.00;;;;;;;;5063365;28;11546;-76
2021/12/06 09:16:07;;;;;;;;;29.25;24.50;;;;;;;;5050832;28;11538;-77
2021/12/06 09:18:38;;;;;;;;;23.00;21.00;;;;;;;;5042661;28;11526;-78
2021/12/06 09:21:08;;;;;;;;;18.75;16.75;;;;;;;;5043960;28;11484;-77
2021/12/06 09:23:36;;;;;;;;;24.00;20.00;;;;;;;;5042667;28;12302;-76
2021/12/06 09:26:04;;;;;;;;;20.25;20.00;;;;;;;;5043623;28;11472;-77
2021/12/06 09:28:33;;;;;;;;;21.75;20.00;;;;;;;;5043494;28;11561;-77
2021/12/06 09:31:03;;;;;;;;;19.25;17.00;;;;;;;;5042269;28;11495;-77
2021/12/06 09:33:31;;;;;;;;;25.25;22.50;;;;;;;;5015773;28;12265;-76
2021/12/06 09:36:00;;;;;;;;;29.00;22.00;;;;;;;;5041427;28;11481;-77
2021/12/06 09:38:34;;;;;;;;;18.50;18.50;;;;;;;;5045891;28;11544;-77
2021/12/06 09:41:02;;;;;;;;;10.25;10.25;;;;;;;;5033723;28;11479;-77
2021/12/06 09:43:30;;;;;;;;;16.50;15.50;;;;;;;;5030047;28;11483;-77
2021/12/06 09:45:59;;;;;;;;;18.00;18.00;;;;;;;;5054003;28;11471;-76
2021/12/06 09:48:26;;;;;;;;;19.00;18.00;;;;;;;;5028284;28;11591;-77
2021/12/06 09:50:56;;;;;;;;;17.00;17.00;;;;;;;;5021977;28;11549;-76
2021/12/06 09:53:26;;;;;;;;;19.25;19.25;;;;;;;;5024279;28;11559;-76
2021/12/06 09:55:55;;;;;;;;;21.00;18.00;;;;;;;;5027464;28;11634;-77
2021/12/06 09:58:24;;;;;;;;;15.75;14.25;;;;;;;;5026288;28;11583;-77
2021/12/06 10:00:54;;;;;;;;;22.00;21.25;;;;;;;;5027011;28;11408;-77
2021/12/06 10:03:28;;;;;;;;;30.50;20.50;;;;;;;;5026999;28;11557;-77
2021/12/06 10:06:02;;;;;;;;;22.75;21.25;;;;;;;;5024960;28;11562;-77
2021/12/06 10:08:29;;;;;;;;;25.25;22.75;;;;;;;;5014933;28;11559;-77
2021/12/06 10:10:57;;;;;;;;;26.25;22.25;;;;;;;;5025725;28;11557;-76
2021/12/06 10:13:24;;;;;;;;;14.00;13.50;;;;;;;;5027229;28;11564;-77
2021/12/06 10:15:52;;;;;;;;;22.50;22.50;;;;;;;;5026067;28;11647;-76
2021/12/06 10:18:20;;;;;;;;;20.50;20.50;;;;;;;;5025700;28;11555;-76
2021/12/06 10:20:50;;;;;;;;;27.75;22.00;;;;;;;;5026982;28;12415;-77
2021/12/06 10:23:18;;;;;;;;;18.00;15.50;;;;;;;;5025579;28;11587;-77
2021/12/06 10:25:49;;;;;;;;;20.50;20.50;;;;;;;;5022417;28;11533;-77
2021/12/06 10:28:18;;;;;;;;;21.25;21.25;;;;;;;;5025956;28;12185;-76
2021/12/06 10:30:49;;;;;;;;;21.25;17.00;;;;;;;;5025931;28;11530;-77
2021/12/06 10:33:19;;;;;;;;;26.00;21.00;;;;;;;;5026151;28;11565;-76
2021/12/06 10:35:52;;;;;;;;;18.25;18.25;;;;;;;;5026306;28;11572;-76
2021/12/06 10:38:21;;;;;;;;;23.25;22.00;;;;;;;;5032327;28;11521;-76
2021/12/06 10:40:49;;;;;;;;;25.75;22.00;;;;;;;;5019997;28;12393;-77
2021/12/06 10:43:17;;;;;;;;;24.25;21.50;;;;;;;;5031365;28;11649;-77
2021/12/06 10:45:48;;;;;;;;;21.00;18.00;;;;;;;;5033239;28;11559;-77
2021/12/06 10:48:18;;;;;;;;;22.75;18.25;;;;;;;;5039091;28;11462;-76
2021/12/06 10:50:48;;;;;;;;;18.25;14.75;;;;;;;;5044151;28;11470;-76
2021/12/06 10:53:17;;;;;;;;;17.00;17.00;;;;;;;;5046463;28;11475;-76
2021/12/06 10:55:46;;;;;;;;;20.00;17.50;;;;;;;;5066058;28;12250;-76
2021/12/06 10:58:16;;;;;;;;;16.25;14.00;;;;;;;;5049015;28;11478;-77
2021/12/06 11:00:48;;;;;;;;;13.50;13.50;;;;;;;;5045781;28;11406;-76
2021/12/06 11:03:35;;;;;;;;;14.50;14.00;;;;;;;;5043648;28;11607;-80
2021/12/06 11:06:07;;;;;;;;;15.50;15.50;;;;;;;;5043491;28;12320;-78
2021/12/06 11:08:36;;;;;;;;;8.50;8.50;;;;;;;;5038563;28;11423;-79
2021/12/06 11:11:06;;;;;;;;;28.00;25.25;;;;;;;;5043602;28;11440;-81
2021/12/06 11:13:36;;;;;;;;;19.00;18.75;;;;;;;;5029398;28;11451;-79
2021/12/06 11:16:11;;;;;;;;;18.00;17.50;;;;;;;;5030010;28;11478;-80
2021/12/06 11:18:42;;;;;;;;;11.50;10.75;;;;;;;;5043779;28;12545;-83
2021/12/06 11:21:25;;;;;;;;;10.50;10.50;;;;;;;;5042974;28;11620;-78
2021/12/06 11:24:11;;;;;;;;;13.75;13.50;;;;;;;;5040712;28;11470;-78
2021/12/06 11:26:44;;;;;;;;;16.00;16.00;;;;;;;;5045753;28;11453;-78
2021/12/06 11:29:16;;;;;;;;;21.00;19.00;;;;;;;;5046600;28;11560;-80
2021/12/06 11:31:49;;;;;;;;;16.00;14.00;;;;;;;;5048875;28;11378;-82
2021/12/06 11:34:17;;;;;;;;;22.00;17.75;;;;;;;;5040687;28;11438;-75
2021/12/06 11:36:46;;;;;;;;;20.00;16.25;;;;;;;;5059163;28;11459;-75
2021/12/06 11:39:19;;;;;;;;;18.25;15.00;;;;;;;;5038055;28;12245;-77
2021/12/06 11:41:54;;;;;;;;;17.25;16.75;;;;;;;;5032686;28;11573;-78
2021/12/06 11:44:24;;;;;;;;;19.25;16.25;;;;;;;;5043902;28;11481;-76
2021/12/06 11:47:02;;;;;;;;;19.75;17.50;;;;;;;;5044634;28;11474;-77
2021/12/06 11:49:34;;;;;;;;;14.00;12.75;;;;;;;;5041871;28;11444;-77
2021/12/06 11:52:03;;;;;;;;;22.00;18.25;;;;;;;;5041950;28;12355;-75
2021/12/06 11:54:37;;;;;;;;;20.75;20.75;;;;;;;;5043188;28;11461;-77
2021/12/06 11:57:27;;;;;;;;;14.50;14.50;;;;;;;;5043438;28;11447;-78
2021/12/06 12:00:07;;;;;;;;;15.75;13.75;;;;;;;;5048720;28;11454;-76
2021/12/06 12:02:42;;;;;;;;;15.25;15.25;;;;;;;;5052577;28;11529;-78
2021/12/06 12:05:14;;;;;;;;;20.00;14.75;;;;;;;;5044481;28;11546;-78
2021/12/06 12:07:59;;;;;;;;;21.25;15.25;;;;;;;;5020210;28;11292;-75
2021/12/06 12:10:31;;;;;;;;;21.00;20.50;;;;;;;;5043465;28;11453;-77
2021/12/06 12:12:58;;;;;;;;;26.75;25.50;;;;;;;;5047784;28;12229;-75
2021/12/06 12:15:26;;;;;;;;;23.25;20.75;;;;;;;;5042926;28;11596;-79
2021/12/06 12:17:53;;;;;;;;;23.75;23.75;;;;;;;;5063292;28;11446;-80
2021/12/06 12:20:24;;;;;;;;;21.50;18.75;;;;;;;;5054800;28;11468;-75
2021/12/06 12:22:54;;;;;;;;;21.75;14.75;;;;;;;;5043164;28;11469;-75
2021/12/06 12:25:29;;;;;;;;;23.75;21.75;;;;;;;;5041602;28;11538;-75
2021/12/06 12:28:04;;;;;;;;;19.00;17.50;;;;;;;;5050298;28;11428;-75
2021/12/06 12:30:33;;;;;;;;;21.50;18.25;;;;;;;;5024392;28;11372;-75
2021/12/06 12:33:02;;;;;;;;;28.00;22.00;;;;;;;;5042084;28;11559;-75
2021/12/06 12:35:31;;;;;;;;;25.50;19.50;;;;;;;;5028432;28;11543;-73
2021/12/06 12:37:59;;;;;;;;;21.25;21.25;;;;;;;;5054373;28;11449;-75
2021/12/06 12:40:34;;;;;;;;;27.75;27.50;;;;;;;;5037365;28;11424;-76
2021/12/06 12:43:05;;;;;;;;;26.50;24.25;;;;;;;;5037888;28;11471;-75
2021/12/06 12:45:37;;;;;;;;;27.50;23.75;;;;;;;;5024771;28;12248;-75
2021/12/06 12:48:05;;;;;;;;;20.25;19.75;;;;;;;;5043445;28;11449;-76
2021/12/06 12:50:32;;;;;;;;;21.75;21.75;;;;;;;;5047858;28;11432;-75
2021/12/06 12:53:08;;;;;;;;;22.00;22.00;;;;;;;;5042494;28;11416;-77
2021/12/06 12:55:41;;;;;;;;;23.50;18.50;;;;;;;;5056501;28;11526;-76
2021/12/06 12:58:11;;;;;;;;;22.25;22.25;;;;;;;;5040292;28;11452;-76
2021/12/06 13:00:46;;;;;;;;;17.75;17.75;;;;;;;;5028451;28;11432;-76
2021/12/06 13:03:31;;;;;;;;;22.50;18.75;;;;;;;;5040551;28;11441;-77
2021/12/06 13:06:15;;;;;;;;;18.75;18.75;;;;;;;;5046881;28;11252;-78
2021/12/06 13:08:42;;;;;;;;;16.50;14.50;;;;;;;;5041198;28;11490;-77
2021/12/06 13:11:11;;;;;;;;;18.50;17.50;;;;;;;;5045588;28;11459;-77
2021/12/06 13:13:43;;;;;;;;;16.25;14.25;;;;;;;;5037241;28;12179;-77
2021/12/06 13:16:38;;;;;;;;;19.00;15.00;;;;;;;;5039628;28;11646;-78
2021/12/06 13:19:16;;;;;;;;;22.25;20.00;;;;;;;;5033665;28;12252;-77
2021/12/06 13:22:07;;;;;;;;;21.50;21.50;;;;;;;;5052424;28;11564;-77
2021/12/06 13:24:53;;;;;;;;;22.50;18.75;;;;;;;;5040630;28;12244;-77
2021/12/06 13:27:28;;;;;;;;;16.00;16.00;;;;;;;;5041263;28;11550;-77
2021/12/06 13:29:58;;;;;;;;;17.25;16.75;;;;;;;;5054485;28;11999;-77
2021/12/06 13:32:58;;;;;;;;;22.25;18.00;;;;;;;;5033156;28;11210;-77
2021/12/06 13:35:38;;;;;;;;;17.50;15.25;;;;;;;;5005988;28;11445;-77
2021/12/06 13:38:24;;;;;;;;;15.00;14.75;;;;;;;;5046925;28;11172;-77
2021/12/06 13:41:15;;;;;;;;;17.75;15.50;;;;;;;;5037114;28;11991;-77
2021/12/06 13:43:48;;;;;;;;;14.00;14.00;;;;;;;;5042379;28;12373;-77
2021/12/06 13:46:31;;;;;;;;;14.50;14.50;;;;;;;;5039254;28;11252;-77
2021/12/06 13:49:01;;;;;;;;;17.75;15.25;;;;;;;;5035327;28;12121;-77
2021/12/06 13:51:35;;;;;;;;;17.75;12.75;;;;;;;;5042095;28;11507;-77
2021/12/06 13:54:05;;;;;;;;;17.00;15.50;;;;;;;;5039872;28;12146;-77
2021/12/06 13:56:54;;;;;;;;;24.75;13.75;;;;;;;;5038962;28;11172;-77
2021/12/06 13:59:26;;;;;;;;;13.75;10.00;;;;;;;;5038677;28;11185;-77
2021/12/06 14:01:56;;;;;;;;;12.00;10.50;;;;;;;;5039549;28;11264;-77
2021/12/06 14:04:24;;;;;;;;;13.75;11.50;;;;;;;;5044617;28;11169;-76
2021/12/06 14:06:54;;;;;;;;;10.00;10.00;;;;;;;;5022915;28;11505;-73
2021/12/06 14:09:27;;;;;;;;;10.50;10.50;;;;;;;;5043823;28;11869;-78
2021/12/06 14:11:56;;;;;;;;;13.00;9.75;;;;;;;;5043757;28;11161;-78
2021/12/06 14:14:27;;;;;;;;;13.00;13.00;;;;;;;;5040958;28;11284;-75
2021/12/06 14:16:55;;;;;;;;;14.50;10.50;;;;;;;;5034877;28;11263;-74
2021/12/06 14:19:27;;;;;;;;;10.75;9.50;;;;;;;;5061513;28;11237;-75
2021/12/06 14:21:55;;;;;;;;;14.75;10.00;;;;;;;;5045335;28;11176;-74
2021/12/06 14:24:23;;;;;;;;;13.00;10.50;;;;;;;;5030030;28;11207;-76
2021/12/06 14:26:51;;;;;;;;;13.00;11.00;;;;;;;;5059195;28;11254;-76
2021/12/06 14:29:20;;;;;;;;;7.00;5.00;;;;;;;;5048240;28;11438;-75
2021/12/06 14:31:52;;;;;;;;;16.25;12.50;;;;;;;;5044897;28;11521;-74
2021/12/06 14:34:20;;;;;;;;;13.75;13.75;;;;;;;;5044720;28;11230;-75
2021/12/06 14:36:47;;;;;;;;;13.75;11.00;;;;;;;;5027672;28;11440;-76
2021/12/06 14:39:18;;;;;;;;;2.25;1.00;;;;;;;;5046716;28;11452;-76
2021/12/06 14:41:54;;;;;;;;;9.75;9.75;;;;;;;;5047404;28;12273;-75
2021/12/06 14:44:41;;;;;;;;;16.75;13.00;;;;;;;;5048012;28;11451;-75
2021/12/06 14:47:12;;;;;;;;;15.00;11.00;;;;;;;;5045864;28;11437;-75